createdAt,value
2022-11-16T00:01:05.952Z,7.70
2022-11-16T00:03:36.810Z,7.70
2022-11-16T00:06:07.515Z,7.90
2022-11-16T00:08:38.557Z,8.00
2022-11-16T00:11:09.659Z,8.00
2022-11-16T00:13:39.719Z,8.10
2022-11-16T00:16:10.446Z,8.10
2022-11-16T00:18:40.259Z,8.10
2022-11-16T00:21:10.171Z,8.20
2022-11-16T00:23:39.597Z,8.30
2022-11-16T00:26:10.838Z,8.40
2022-11-16T00:28:39.374Z,8.30
2022-11-16T00:31:09.057Z,8.30
2022-11-16T00:33:40.432Z,8.30
2022-11-16T00:36:12.408Z,8.30
2022-11-16T00:38:41.440Z,8.30
2022-11-16T00:41:10.876Z,8.30
2022-11-16T00:43:39.531Z,8.30
2022-11-16T00:46:08.178Z,8.30
2022-11-16T00:48:36.813Z,8.30
2022-11-16T00:51:07.387Z,8.40
2022-11-16T00:53:37.292Z,8.40
2022-11-16T00:56:06.393Z,8.50
2022-11-16T00:58:35.054Z,8.50
2022-11-16T01:01:07.059Z,8.50
2022-11-16T01:03:36.375Z,8.60
2022-11-16T01:06:08.988Z,8.60
2022-11-16T01:08:39.113Z,8.70
2022-11-16T01:11:26.293Z,8.60
2022-11-16T01:13:55.904Z,8.60
2022-11-16T01:16:25.614Z,8.60
2022-11-16T01:18:56.158Z,8.50
2022-11-16T01:21:26.354Z,8.50
2022-11-16T01:23:55.805Z,8.50
2022-11-16T01:26:24.446Z,8.40
2022-11-16T01:28:52.999Z,8.40
2022-11-16T01:31:22.080Z,8.40
2022-11-16T01:33:50.591Z,8.40
2022-11-16T01:36:19.034Z,8.40
2022-11-16T01:38:49.104Z,8.60
2022-11-16T01:41:20.838Z,8.60
2022-11-16T01:43:57.477Z,8.60
2022-11-16T01:46:27.144Z,8.50
2022-11-16T01:49:03.019Z,8.50
2022-11-16T01:51:32.813Z,8.50
2022-11-16T01:54:06.444Z,8.50
2022-11-16T01:56:37.200Z,8.40
2022-11-16T01:59:06.389Z,8.40
2022-11-16T02:01:35.188Z,8.40
2022-11-16T02:04:03.985Z,8.40
2022-11-16T02:06:57.293Z,8.40
2022-11-16T02:09:56.016Z,8.50
2022-11-16T02:12:58.092Z,8.60
2022-11-16T02:15:33.786Z,8.60
2022-11-16T02:18:19.894Z,8.50
2022-11-16T02:21:14.898Z,8.60
2022-11-16T02:24:12.348Z,8.70
2022-11-16T02:27:04.152Z,8.70
2022-11-16T02:29:39.379Z,8.80
2022-11-16T02:32:14.566Z,8.70
2022-11-16T02:34:47.641Z,8.70
2022-11-16T02:37:20.032Z,8.70
2022-11-16T02:39:53.267Z,8.60
2022-11-16T02:42:29.369Z,8.50
2022-11-16T02:45:01.289Z,8.50
2022-11-16T02:47:34.716Z,8.40
2022-11-16T02:50:08.342Z,8.40
2022-11-16T02:52:38.601Z,8.30
2022-11-16T02:55:08.892Z,8.20
2022-11-16T02:57:47.528Z,8.20
2022-11-16T03:00:24.058Z,8.20
2022-11-16T03:03:17.699Z,8.10
2022-11-16T03:05:52.590Z,8.20
2022-11-16T03:08:27.813Z,8.30
2022-11-16T03:11:19.982Z,8.30
2022-11-16T03:13:49.956Z,8.30
2022-11-16T03:16:26.306Z,8.40
2022-11-16T03:18:58.458Z,8.40
2022-11-16T03:21:33.772Z,8.40
2022-11-16T03:24:02.352Z,8.40
2022-11-16T03:26:42.969Z,8.40
2022-11-16T03:29:21.961Z,8.40
2022-11-16T03:31:58.788Z,8.40
2022-11-16T03:34:33.296Z,8.40
2022-11-16T03:37:04.706Z,8.40
2022-11-16T03:39:38.504Z,8.40
2022-11-16T03:42:14.122Z,8.40
2022-11-16T03:44:43.810Z,8.40
2022-11-16T03:47:14.282Z,8.40
2022-11-16T03:49:46.561Z,8.40
2022-11-16T03:52:17.049Z,8.40
2022-11-16T03:54:45.689Z,8.40
2022-11-16T03:57:18.120Z,8.40
2022-11-16T03:59:47.099Z,8.30
2022-11-16T04:02:16.974Z,8.30
2022-11-16T04:05:03.109Z,8.30
2022-11-16T04:07:48.866Z,8.30
2022-11-16T04:10:34.975Z,8.30
2022-11-16T04:13:22.427Z,8.20
2022-11-16T04:16:07.416Z,8.20
2022-11-16T04:18:54.940Z,8.20
2022-11-16T04:21:45.210Z,8.20
2022-11-16T04:24:18.649Z,8.20
2022-11-16T04:27:14.633Z,8.20
2022-11-16T04:29:43.680Z,8.10
2022-11-16T04:32:31.426Z,8.10
2022-11-16T04:35:19.104Z,8.10
2022-11-16T04:37:50.184Z,8.00
2022-11-16T04:40:20.288Z,7.90
2022-11-16T04:42:53.378Z,7.90
2022-11-16T04:45:40.704Z,7.90
2022-11-16T04:48:10.106Z,7.90
2022-11-16T04:50:41.957Z,7.80
2022-11-16T04:53:11.425Z,7.80
2022-11-16T04:55:40.199Z,7.80
2022-11-16T04:58:08.926Z,7.90
2022-11-16T05:00:37.390Z,7.90
2022-11-16T05:03:06.357Z,7.90
2022-11-16T05:05:34.916Z,7.90
2022-11-16T05:08:04.873Z,7.80
2022-11-16T05:10:33.390Z,7.80
2022-11-16T05:13:02.928Z,7.70
2022-11-16T05:15:31.408Z,7.70
2022-11-16T05:18:00.098Z,7.80
2022-11-16T05:20:45.883Z,7.80
2022-11-16T05:23:29.590Z,7.80
2022-11-16T05:25:58.148Z,7.90
2022-11-16T05:28:26.649Z,7.80
2022-11-16T05:30:55.145Z,7.80
2022-11-16T05:33:23.877Z,7.70
2022-11-16T05:35:52.734Z,7.70
2022-11-16T05:38:22.596Z,7.80
2022-11-16T05:40:51.042Z,7.80
2022-11-16T05:43:19.748Z,7.80
2022-11-16T05:45:48.260Z,7.80
2022-11-16T05:48:16.753Z,7.80
2022-11-16T05:50:45.534Z,7.90
2022-11-16T05:53:14.200Z,7.90
2022-11-16T05:55:44.122Z,7.90
2022-11-16T05:58:12.768Z,7.90
2022-11-16T06:00:41.256Z,7.90
2022-11-16T06:03:09.828Z,7.80
2022-11-16T06:05:40.696Z,7.80
2022-11-16T06:08:09.560Z,7.80
2022-11-16T06:10:38.121Z,7.80
2022-11-16T06:13:07.992Z,7.70
2022-11-16T06:15:40.050Z,7.70
2022-11-16T06:18:09.543Z,7.70
2022-11-16T06:20:40.996Z,7.70
2022-11-16T06:23:09.465Z,7.70
2022-11-16T06:25:40.292Z,7.70
2022-11-16T06:28:11.353Z,7.70
2022-11-16T06:30:41.246Z,7.70
2022-11-16T06:33:09.758Z,7.70
2022-11-16T06:35:38.466Z,7.70
2022-11-16T06:38:07.326Z,7.70
2022-11-16T06:40:35.803Z,7.70
2022-11-16T06:43:04.405Z,7.70
2022-11-16T06:45:34.246Z,7.70
2022-11-16T06:48:02.691Z,7.60
2022-11-16T06:50:31.206Z,7.60
2022-11-16T06:53:00.862Z,7.60
2022-11-16T06:55:29.649Z,7.60
2022-11-16T06:57:58.257Z,7.60
2022-11-16T07:00:28.085Z,7.60
2022-11-16T07:02:57.904Z,7.60
2022-11-16T07:05:26.383Z,7.60
2022-11-16T07:07:56.182Z,7.70
2022-11-16T07:10:25.586Z,7.70
2022-11-16T07:12:54.086Z,7.70
2022-11-16T07:15:22.546Z,7.70
2022-11-16T07:17:51.010Z,7.70
2022-11-16T07:20:21.367Z,7.70
2022-11-16T07:22:49.825Z,7.70
2022-11-16T07:25:18.570Z,7.60
2022-11-16T07:27:47.232Z,7.60
2022-11-16T07:30:16.956Z,7.50
2022-11-16T07:32:45.645Z,7.50
2022-11-16T07:35:14.121Z,7.50
2022-11-16T07:37:44.201Z,7.50
2022-11-16T07:40:13.386Z,7.40
2022-11-16T07:42:43.842Z,7.40
2022-11-16T07:45:12.949Z,7.30
2022-11-16T07:47:41.863Z,7.30
2022-11-16T07:50:11.278Z,7.30
2022-11-16T07:52:39.832Z,7.30
2022-11-16T07:55:10.275Z,7.20
2022-11-16T07:57:38.763Z,7.20
2022-11-16T08:00:09.487Z,7.30
2022-11-16T08:02:38.028Z,7.40
2022-11-16T08:05:08.226Z,7.50
2022-11-16T08:07:36.962Z,7.40
2022-11-16T08:10:06.903Z,7.50
2022-11-16T08:12:37.010Z,7.50
2022-11-16T08:15:06.355Z,7.50
2022-11-16T08:17:35.057Z,7.50
2022-11-16T08:20:03.570Z,7.50
2022-11-16T08:22:32.104Z,7.40
2022-11-16T08:25:00.595Z,7.40
2022-11-16T08:27:29.117Z,7.40
2022-11-16T08:29:59.025Z,7.40
2022-11-16T08:32:29.799Z,7.30
2022-11-16T08:34:58.326Z,7.30
2022-11-16T08:37:28.173Z,7.30
2022-11-16T08:39:56.899Z,7.30
2022-11-16T08:42:25.350Z,7.20
2022-11-16T08:44:53.834Z,7.20
2022-11-16T08:47:23.739Z,7.20
2022-11-16T08:49:52.222Z,7.20
2022-11-16T08:52:21.061Z,7.30
2022-11-16T08:54:49.755Z,7.30
2022-11-16T08:57:18.236Z,7.30
2022-11-16T08:59:46.734Z,7.30
2022-11-16T09:02:15.284Z,7.30
2022-11-16T09:04:45.437Z,7.40
2022-11-16T09:07:14.187Z,7.40
2022-11-16T09:09:42.671Z,7.40
2022-11-16T09:12:11.389Z,7.40
2022-11-16T09:14:40.080Z,7.50
2022-11-16T09:17:08.779Z,7.50
2022-11-16T09:19:37.242Z,7.50
2022-11-16T09:22:07.485Z,7.50
2022-11-16T09:24:36.237Z,7.50
2022-11-16T09:27:05.028Z,7.50
2022-11-16T09:29:33.614Z,7.60
2022-11-16T09:32:02.287Z,7.60
2022-11-16T09:34:30.764Z,7.60
2022-11-16T09:36:59.255Z,7.70
2022-11-16T09:39:32.451Z,7.80
2022-11-16T09:42:21.349Z,7.80
2022-11-16T09:45:08.765Z,7.80
2022-11-16T09:47:49.063Z,7.80
2022-11-16T09:50:37.389Z,7.70
2022-11-16T09:53:24.649Z,7.70
2022-11-16T09:55:56.580Z,7.80
2022-11-16T09:58:31.969Z,7.90
2022-11-16T10:01:07.366Z,7.90
2022-11-16T10:03:43.935Z,8.00
2022-11-16T10:06:22.757Z,8.00
2022-11-16T10:08:53.282Z,8.00
2022-11-16T10:11:46.706Z,8.10
2022-11-16T10:14:51.325Z,8.20
2022-11-16T10:17:35.105Z,8.30
2022-11-16T10:20:30.231Z,8.30
2022-11-16T10:23:13.343Z,8.40
2022-11-16T10:25:45.560Z,8.60
2022-11-16T10:29:06.264Z,8.70
2022-11-16T10:31:55.002Z,9.00
2022-11-16T10:34:27.425Z,9.10
2022-11-16T10:37:03.425Z,9.00
2022-11-16T10:39:34.604Z,9.00
2022-11-16T10:42:07.816Z,9.00
2022-11-16T10:44:44.062Z,9.00
2022-11-16T10:47:22.094Z,9.00
2022-11-16T10:49:57.925Z,9.00
2022-11-16T10:52:26.779Z,9.10
2022-11-16T10:54:55.484Z,9.20
2022-11-16T10:57:26.562Z,9.30
2022-11-16T10:59:56.787Z,9.40
2022-11-16T11:02:35.616Z,9.50
2022-11-16T11:05:09.392Z,9.50
2022-11-16T11:07:40.607Z,9.50
2022-11-16T11:10:32.207Z,9.60
2022-11-16T11:13:17.432Z,9.60
2022-11-16T11:15:48.122Z,9.70
2022-11-16T11:18:27.808Z,9.80
2022-11-16T11:21:10.211Z,9.90
2022-11-16T11:23:45.767Z,10.00
2022-11-16T11:26:36.664Z,10.00
2022-11-16T11:29:21.965Z,10.10
2022-11-16T11:31:55.596Z,10.10
2022-11-16T11:34:26.359Z,10.10
2022-11-16T11:36:57.826Z,10.00
2022-11-16T11:39:37.764Z,10.00
2022-11-16T11:42:22.375Z,10.10
2022-11-16T11:44:59.472Z,10.20
2022-11-16T11:47:57.914Z,10.10
2022-11-16T11:50:39.918Z,10.10
2022-11-16T11:53:16.738Z,10.10
2022-11-16T11:55:45.192Z,10.10
2022-11-16T11:58:19.307Z,10.20
2022-11-16T12:01:03.330Z,10.30
2022-11-16T12:04:15.607Z,10.40
2022-11-16T12:06:51.268Z,10.50
2022-11-16T12:09:34.904Z,10.50
2022-11-16T12:12:22.387Z,10.50
2022-11-16T12:15:08.118Z,10.50
2022-11-16T12:17:48.281Z,10.60
2022-11-16T12:20:40.008Z,10.40
2022-11-16T12:23:48.913Z,10.30
2022-11-16T12:26:27.762Z,10.20
2022-11-16T12:29:19.360Z,10.00
2022-11-16T12:32:19.135Z,9.80
2022-11-16T12:35:06.066Z,9.70
2022-11-16T12:37:44.848Z,9.60
2022-11-16T12:40:32.029Z,9.40
2022-11-16T12:43:09.665Z,9.40
2022-11-16T12:45:55.676Z,9.40
2022-11-16T12:48:46.517Z,9.40
2022-11-16T12:51:32.493Z,9.50
2022-11-16T12:54:31.775Z,9.60
2022-11-16T12:57:10.431Z,9.70
2022-11-16T13:00:02.634Z,9.70
2022-11-16T13:03:00.950Z,9.70
2022-11-16T13:05:48.436Z,9.70
2022-11-16T13:08:31.601Z,9.70
2022-11-16T13:11:08.306Z,9.90
2022-11-16T13:13:37.763Z,9.90
2022-11-16T13:16:08.739Z,9.90
2022-11-16T13:18:44.160Z,9.80
2022-11-16T13:21:32.753Z,9.80
2022-11-16T13:24:31.834Z,9.80
2022-11-16T13:27:17.729Z,9.70
2022-11-16T13:29:54.193Z,9.70
2022-11-16T13:32:35.062Z,9.70
2022-11-16T13:35:07.107Z,9.50
2022-11-16T13:37:49.925Z,9.50
2022-11-16T13:40:39.177Z,9.40
2022-11-16T13:43:19.335Z,9.40
2022-11-16T13:46:00.731Z,9.30
2022-11-16T13:48:34.797Z,9.30
2022-11-16T13:51:06.381Z,9.30
2022-11-16T13:54:37.845Z,9.30
2022-11-16T13:56:29.319Z,9.30
2022-11-16T13:59:00.486Z,9.40
2022-11-16T14:02:00.552Z,9.40
2022-11-16T14:04:43.352Z,9.30
2022-11-16T14:07:40.581Z,9.30
2022-11-16T14:10:09.448Z,9.40
2022-11-16T14:12:53.296Z,9.40
2022-11-16T14:15:26.848Z,9.40
2022-11-16T14:18:19.426Z,9.40
2022-11-16T14:20:59.800Z,9.40
2022-11-16T14:24:06.501Z,9.40
2022-11-16T14:26:49.565Z,9.30
2022-11-16T14:29:53.888Z,9.40
2022-11-16T14:32:27.208Z,9.40
2022-11-16T14:34:58.874Z,9.40
2022-11-16T14:37:35.572Z,9.40
2022-11-16T14:40:09.232Z,9.50
2022-11-16T14:43:09.881Z,9.50
2022-11-16T14:45:39.758Z,9.50
2022-11-16T14:48:19.075Z,9.50
2022-11-16T14:51:01.345Z,9.50
2022-11-16T14:53:30.797Z,9.40
2022-11-16T14:56:10.889Z,9.40
2022-11-16T14:58:39.478Z,9.20
2022-11-16T15:01:15.079Z,9.00
2022-11-16T15:03:56.923Z,8.80
2022-11-16T15:06:27.684Z,8.50
2022-11-16T15:09:01.040Z,8.40
2022-11-16T15:11:47.715Z,8.20
2022-11-16T15:14:24.004Z,8.10
2022-11-16T15:16:54.469Z,8.00
2022-11-16T15:19:25.949Z,7.80
2022-11-16T15:21:56.847Z,7.70
2022-11-16T15:24:31.726Z,7.60
2022-11-16T15:27:13.437Z,7.30
2022-11-16T15:29:41.985Z,7.10
2022-11-16T15:32:17.029Z,7.00
2022-11-16T15:34:49.413Z,6.80
2022-11-16T15:37:29.403Z,6.80
2022-11-16T15:39:59.234Z,6.80
2022-11-16T15:42:29.576Z,6.70
2022-11-16T15:45:00.502Z,6.60
2022-11-16T15:47:29.351Z,6.40
2022-11-16T15:49:59.233Z,6.40
2022-11-16T15:52:47.448Z,6.20
2022-11-16T15:55:27.743Z,6.00
2022-11-16T15:58:16.721Z,5.90
2022-11-16T16:00:49.731Z,5.90
2022-11-16T16:03:23.730Z,5.70
2022-11-16T16:05:55.300Z,5.60
2022-11-16T16:08:31.951Z,5.70
2022-11-16T16:11:09.974Z,5.60
2022-11-16T16:13:41.657Z,5.50
2022-11-16T16:16:32.519Z,5.30
2022-11-16T16:19:08.369Z,5.30
2022-11-16T16:21:46.078Z,5.30
2022-11-16T16:24:41.329Z,5.20
2022-11-16T16:27:15.843Z,5.20
2022-11-16T16:29:44.745Z,5.10
2022-11-16T16:32:20.885Z,5.00
2022-11-16T16:34:49.398Z,4.90
2022-11-16T16:37:19.485Z,4.90
2022-11-16T16:39:47.994Z,4.90
2022-11-16T16:42:18.536Z,4.90
2022-11-16T16:44:48.904Z,4.90
2022-11-16T16:47:20.787Z,4.80
2022-11-16T16:49:50.036Z,4.80
2022-11-16T16:52:19.966Z,4.80
2022-11-16T16:54:48.665Z,4.70
2022-11-16T16:57:19.152Z,4.70
2022-11-16T16:59:48.691Z,4.70
2022-11-16T17:02:18.341Z,4.70
2022-11-16T17:04:48.516Z,4.70
2022-11-16T17:07:17.476Z,4.70
2022-11-16T17:09:47.646Z,4.60
2022-11-16T17:12:16.391Z,4.60
2022-11-16T17:14:51.334Z,4.70
2022-11-16T17:17:20.411Z,4.70
2022-11-16T17:19:49.033Z,4.60
2022-11-16T17:22:17.522Z,4.50
2022-11-16T17:24:47.858Z,4.30
2022-11-16T17:27:16.439Z,4.20
2022-11-16T17:29:44.904Z,4.20
2022-11-16T17:32:13.594Z,4.10
2022-11-16T17:34:42.091Z,4.10
2022-11-16T17:37:10.559Z,4.00
2022-11-16T17:39:39.210Z,4.00
2022-11-16T17:42:09.069Z,3.90
2022-11-16T17:44:37.781Z,3.70
2022-11-16T17:47:07.491Z,3.70
2022-11-16T17:49:36.204Z,3.80
2022-11-16T17:52:05.152Z,3.80
2022-11-16T17:54:33.873Z,3.70
2022-11-16T17:57:02.355Z,3.70
2022-11-16T17:59:32.220Z,3.70
2022-11-16T18:02:00.884Z,3.60
2022-11-16T18:04:29.376Z,3.60
2022-11-16T18:06:59.726Z,3.60
2022-11-16T18:09:28.300Z,3.40
2022-11-16T18:11:57.107Z,3.40
2022-11-16T18:14:25.709Z,3.30
2022-11-16T18:16:55.555Z,3.30
2022-11-16T18:19:24.348Z,3.30
2022-11-16T18:21:52.894Z,3.30
2022-11-16T18:24:21.611Z,3.20
2022-11-16T18:26:50.099Z,3.30
2022-11-16T18:29:19.949Z,3.30
2022-11-16T18:31:48.404Z,3.20
2022-11-16T18:34:19.462Z,3.10
2022-11-16T18:36:49.148Z,3.00
2022-11-16T18:39:18.000Z,2.90
2022-11-16T18:41:53.365Z,2.90
2022-11-16T18:44:23.923Z,2.80
2022-11-16T18:46:52.668Z,2.70
2022-11-16T18:49:22.545Z,2.70
2022-11-16T18:51:50.997Z,2.70
2022-11-16T18:54:19.682Z,2.80
2022-11-16T18:56:49.278Z,2.70
2022-11-16T18:59:17.879Z,2.60
2022-11-16T19:01:46.371Z,2.60
2022-11-16T19:04:15.398Z,2.60
2022-11-16T19:06:45.522Z,2.60
2022-11-16T19:09:14.304Z,2.70
2022-11-16T19:11:42.786Z,2.90
2022-11-16T19:14:11.398Z,3.00
2022-11-16T19:16:47.235Z,3.10
2022-11-16T19:19:18.787Z,3.20
2022-11-16T19:21:48.900Z,3.30
2022-11-16T19:24:17.558Z,3.40
2022-11-16T19:26:46.059Z,3.40
2022-11-16T19:29:14.790Z,3.50
2022-11-16T19:31:43.530Z,3.50
2022-11-16T19:34:14.321Z,3.60
2022-11-16T19:36:42.810Z,3.50
2022-11-16T19:39:12.755Z,3.60
2022-11-16T19:41:41.235Z,3.50
2022-11-16T19:44:09.696Z,3.40
2022-11-16T19:46:38.306Z,3.30
2022-11-16T19:49:08.687Z,3.20
2022-11-16T19:51:37.761Z,3.10
2022-11-16T19:54:06.881Z,3.00
2022-11-16T19:56:36.707Z,3.10
2022-11-16T19:59:05.436Z,3.10
2022-11-16T20:01:34.173Z,3.10
2022-11-16T20:04:04.287Z,3.10
2022-11-16T20:06:35.388Z,3.10
2022-11-16T20:09:09.020Z,3.10
2022-11-16T20:11:41.094Z,3.10
2022-11-16T20:14:13.751Z,3.10
2022-11-16T20:16:44.412Z,3.20
2022-11-16T20:19:13.325Z,3.20
2022-11-16T20:21:44.088Z,3.20
2022-11-16T20:24:16.098Z,3.30
2022-11-16T20:26:48.032Z,3.30
2022-11-16T20:29:19.452Z,3.40
2022-11-16T20:31:48.305Z,3.40
2022-11-16T20:34:20.478Z,3.40
2022-11-16T20:36:50.975Z,3.50
2022-11-16T20:39:21.524Z,3.50
2022-11-16T20:41:51.613Z,3.60
2022-11-16T20:44:22.945Z,3.70
2022-11-16T20:46:53.215Z,3.70
2022-11-16T20:49:21.838Z,3.70
2022-11-16T20:51:51.314Z,3.70
2022-11-16T20:54:19.793Z,3.70
2022-11-16T20:56:49.657Z,3.80
2022-11-16T20:59:19.828Z,3.70
2022-11-16T21:01:48.862Z,3.70
2022-11-16T21:04:18.117Z,3.60
2022-11-16T21:06:46.838Z,3.40
2022-11-16T21:09:22.377Z,3.30
2022-11-16T21:12:08.698Z,3.20
2022-11-16T21:14:38.578Z,3.20
2022-11-16T21:17:07.036Z,3.30
2022-11-16T21:19:35.518Z,3.40
2022-11-16T21:22:04.016Z,3.40
2022-11-16T21:24:32.486Z,3.50
2022-11-16T21:27:00.931Z,3.50
2022-11-16T21:29:30.686Z,3.50
2022-11-16T21:32:00.559Z,3.60
2022-11-16T21:34:34.616Z,3.60
2022-11-16T21:37:05.835Z,3.60
2022-11-16T21:39:34.303Z,3.60
2022-11-16T21:42:02.795Z,3.60
2022-11-16T21:44:41.935Z,3.70
2022-11-16T21:47:12.947Z,3.80
2022-11-16T21:50:00.876Z,3.80
2022-11-16T21:52:30.289Z,3.80
2022-11-16T21:55:01.897Z,3.80
2022-11-16T21:57:30.394Z,3.80
2022-11-16T22:00:01.238Z,3.80
2022-11-16T22:02:31.097Z,3.90
2022-11-16T22:05:17.334Z,3.90
2022-11-16T22:07:45.836Z,3.90
2022-11-16T22:10:14.788Z,3.80
2022-11-16T22:12:43.235Z,3.80
2022-11-16T22:15:12.574Z,3.80
2022-11-16T22:17:44.798Z,3.90
2022-11-16T22:20:13.848Z,4.00
2022-11-16T22:22:42.547Z,4.10
2022-11-16T22:25:13.868Z,4.10
2022-11-16T22:28:13.432Z,4.10
2022-11-16T22:30:31.479Z,4.20
2022-11-16T22:33:01.548Z,4.20
2022-11-16T22:35:30.253Z,4.20
2022-11-16T22:37:59.937Z,4.30
2022-11-16T22:40:28.390Z,4.30
2022-11-16T22:42:58.989Z,4.30
2022-11-16T22:45:27.908Z,4.30
2022-11-16T22:47:56.686Z,4.30
2022-11-16T22:50:26.557Z,4.30
2022-11-16T22:52:55.012Z,4.30
2022-11-16T22:55:23.476Z,4.30
2022-11-16T22:57:52.340Z,4.20
2022-11-16T23:00:21.471Z,4.20
2022-11-16T23:02:49.972Z,4.30
2022-11-16T23:05:18.539Z,4.30
2022-11-16T23:07:48.452Z,4.30
2022-11-16T23:10:18.063Z,4.40
2022-11-16T23:13:03.945Z,4.40
2022-11-16T23:15:49.275Z,4.30
2022-11-16T23:18:19.623Z,4.30
2022-11-16T23:21:05.927Z,4.40
2022-11-16T23:23:49.608Z,4.40
2022-11-16T23:26:42.363Z,4.50
2022-11-16T23:29:12.509Z,4.50
2022-11-16T23:31:41.213Z,4.50
2022-11-16T23:34:09.686Z,4.50
2022-11-16T23:36:38.380Z,4.50
2022-11-16T23:39:08.493Z,4.50
2022-11-16T23:41:50.809Z,4.60
2022-11-16T23:44:19.298Z,4.70
2022-11-16T23:46:47.792Z,4.70
2022-11-16T23:49:16.243Z,4.70
2022-11-16T23:51:44.745Z,4.70
2022-11-16T23:54:14.620Z,4.80
2022-11-16T23:56:43.089Z,5.00
2022-11-16T23:59:11.526Z,5.20
